Time;durP1;ratioP1;P1;durP2;ratioP2;P2;SDS_P1;SDS_P2;PMS_P1;PMS_P2;Temp;Humidity;BMP_temperature;BMP_pressure;BME280_temperature;BME280_humidity;BME280_pressure;Samples;Min_cycle;Max_cycle;Signal;HPM_P1;HPM_P2
2023/04/07 00:01:03;;;;;;;;;;;;;;;27.31;40.89;96638.47;618725;229;65708;-64
2023/04/07 00:03:30;;;;;;;;;;;;;;;27.30;40.05;96631.51;618160;228;65645;-63
2023/04/07 00:05:57;;;;;;;;;;;;;;;27.28;39.98;96639.91;619395;229;63039;-63
2023/04/07 00:08:25;;;;;;;;;;;;;;;27.28;38.04;96639.13;619493;228;63216;-63
2023/04/07 00:10:52;;;;;;;;;;;;;;;27.27;38.63;96638.33;618917;228;63059;-63
2023/04/07 00:13:20;;;;;;;;;;;;;;;27.27;39.85;96642.95;618838;227;65100;-63
2023/04/07 00:15:48;;;;;;;;;;;;;;;27.25;40.10;96645.16;618697;227;65444;-64
2023/04/07 00:18:15;;;;;;;;;;;;;;;27.26;39.65;96646.77;619561;228;65296;-64
2023/04/07 00:20:43;;;;;;;;;;;;;;;27.24;39.71;96647.08;618476;228;65052;-64
2023/04/07 00:23:10;;;;;;;;;;;;;;;27.23;40.70;96637.41;620046;227;65102;-64
2023/04/07 00:25:38;;;;;;;;;;;;;;;27.22;41.09;96636.59;619671;228;65270;-64
2023/04/07 00:28:05;;;;;;;;;;;;;;;27.21;38.67;96634.23;621613;227;65075;-64
2023/04/07 00:30:32;;;;;;;;;;;;;;;27.21;40.87;96634.23;623245;227;66586;-64
2023/04/07 00:33:00;;;;;;;;;;;;;;;27.19;39.37;96631.84;619664;227;65578;-64
2023/04/07 00:35:28;;;;;;;;;;;;;;;27.18;37.87;96624.87;618857;227;65007;-64
2023/04/07 00:37:55;;;;;;;;;;;;;;;27.18;40.57;96632.96;618882;229;65498;-64
2023/04/07 00:40:23;;;;;;;;;;;;;;;27.18;40.38;96632.96;619375;229;65318;-64
2023/04/07 00:42:50;;;;;;;;;;;;;;;27.16;41.04;96629.78;619972;228;64934;-64
2023/04/07 00:45:18;;;;;;;;;;;;;;;27.15;41.05;96638.97;619902;229;65240;-63
2023/04/07 00:47:45;;;;;;;;;;;;;;;27.15;41.18;96630.09;619466;228;63204;-64
2023/04/07 00:50:13;;;;;;;;;;;;;;;27.14;41.45;96629.28;619545;229;65748;-64
2023/04/07 00:52:41;;;;;;;;;;;;;;;27.13;40.68;96633.09;619444;229;65467;-64
2023/04/07 00:55:09;;;;;;;;;;;;;;;27.12;39.15;96636.10;619400;229;65217;-64
2023/04/07 00:57:36;;;;;;;;;;;;;;;27.11;39.80;96635.31;618230;228;65126;-64
2023/04/07 01:00:05;;;;;;;;;;;;;;;27.12;40.17;96639.61;619759;229;63292;-64
2023/04/07 01:02:35;;;;;;;;;;;;;;;27.10;40.03;96636.44;620020;229;65236;-64
2023/04/07 01:05:20;;;;;;;;;;;;;;;27.09;38.98;96634.87;619581;229;65056;-63
2023/04/07 01:07:50;;;;;;;;;;;;;;;27.09;40.73;96637.56;619667;229;65987;-64
2023/04/07 01:10:19;;;;;;;;;;;;;;;27.08;40.94;96635.17;619739;228;64995;-64
2023/04/07 01:12:53;;;;;;;;;;;;;;;27.07;40.03;96638.98;619255;228;44003;-64
2023/04/07 01:15:24;;;;;;;;;;;;;;;27.07;40.04;96644.38;618563;227;43272;-64
2023/04/07 01:17:54;;;;;;;;;;;;;;;27.06;38.69;96637.39;617757;228;44143;-64
2023/04/07 01:20:23;;;;;;;;;;;;;;;27.04;39.98;96639.60;619540;228;64871;-65
2023/04/07 01:22:56;;;;;;;;;;;;;;;27.04;40.47;96640.42;617977;228;42689;-63
2023/04/07 01:25:43;;;;;;;;;;;;;;;27.03;40.39;96644.21;619349;228;62755;-64
2023/04/07 01:28:12;;;;;;;;;;;;;;;27.02;39.68;96645.33;618730;229;65136;-64
2023/04/07 01:30:40;;;;;;;;;;;;;;;27.00;39.65;96642.94;619440;228;65551;-64
2023/04/07 01:33:10;;;;;;;;;;;;;;;27.00;39.12;96644.85;619439;229;65577;-64
2023/04/07 01:35:38;;;;;;;;;;;;;;;26.99;39.19;96652.16;619064;228;65157;-64
2023/04/07 01:38:06;;;;;;;;;;;;;;;26.99;41.68;96643.28;618704;228;65260;-64
2023/04/07 01:40:34;;;;;;;;;;;;;;;26.98;37.65;96644.38;619919;229;65164;-64
2023/04/07 01:43:02;;;;;;;;;;;;;;;26.98;40.75;96638.98;619889;229;65048;-64
2023/04/07 01:45:30;;;;;;;;;;;;;;;26.96;39.07;96639.31;618175;229;63536;-64
2023/04/07 01:47:58;;;;;;;;;;;;;;;26.96;38.32;96633.13;611394;231;65049;-64
2023/04/07 01:50:26;;;;;;;;;;;;;;;26.94;40.37;96635.34;617862;227;65050;-64
2023/04/07 01:52:54;;;;;;;;;;;;;;;26.95;40.00;96637.70;619383;229;63963;-64
2023/04/07 01:55:22;;;;;;;;;;;;;;;26.94;41.73;96630.74;619690;228;63942;-64
2023/04/07 01:57:53;;;;;;;;;;;;;;;26.93;40.13;96626.47;618722;228;46180;-64
2023/04/07 02:00:21;;;;;;;;;;;;;;;26.92;39.95;96632.95;619850;228;63281;-64
2023/04/07 02:02:52;;;;;;;;;;;;;;;26.92;39.52;96632.95;619522;228;44092;-64
2023/04/07 02:05:21;;;;;;;;;;;;;;;26.91;41.05;96625.99;619364;228;65982;-64
2023/04/07 02:07:53;;;;;;;;;;;;;;;26.90;41.71;96620.91;618805;229;65402;-64
2023/04/07 02:10:22;;;;;;;;;;;;;;;26.89;39.64;96627.42;618870;227;65346;-63
2023/04/07 02:12:51;;;;;;;;;;;;;;;26.89;39.49;96622.03;618793;229;62880;-63
2023/04/07 02:15:19;;;;;;;;;;;;;;;26.88;40.83;96626.63;619845;228;66230;-63
2023/04/07 02:17:48;;;;;;;;;;;;;;;26.87;41.52;96632.33;619851;228;65606;-63
2023/04/07 02:20:16;;;;;;;;;;;;;;;26.86;40.40;96636.15;619421;229;62974;-63
2023/04/07 02:22:44;;;;;;;;;;;;;;;26.85;41.78;96629.18;619402;229;65596;-63
2023/04/07 02:25:25;;;;;;;;;;;;;;;26.86;39.12;96630.76;610469;229;64911;-63
2023/04/07 02:27:54;;;;;;;;;;;;;;;26.85;41.13;96626.48;616916;230;65657;-63
2023/04/07 02:30:22;;;;;;;;;;;;;;;26.83;41.09;96629.48;617476;230;65611;-63
2023/04/07 02:32:51;;;;;;;;;;;;;;;26.81;38.49;96634.40;618766;228;64144;-63
2023/04/07 02:35:19;;;;;;;;;;;;;;;26.82;40.41;96637.88;619906;229;66221;-63
2023/04/07 02:37:47;;;;;;;;;;;;;;;26.82;41.95;96632.48;619905;229;63279;-63
2023/04/07 02:40:15;;;;;;;;;;;;;;;26.78;38.66;96626.95;619442;228;63308;-63
2023/04/07 02:42:42;;;;;;;;;;;;;;;26.79;40.58;96623.95;619343;228;64902;-63
2023/04/07 02:45:10;;;;;;;;;;;;;;;26.77;41.05;96628.86;618865;229;65281;-63
2023/04/07 02:47:38;;;;;;;;;;;;;;;26.77;38.86;96625.37;618763;229;65160;-63
2023/04/07 02:50:06;;;;;;;;;;;;;;;26.76;39.15;96629.16;618896;229;64969;-63
2023/04/07 02:52:35;;;;;;;;;;;;;;;26.75;40.60;96628.38;618827;229;62722;-63
2023/04/07 02:55:04;;;;;;;;;;;;;;;26.75;40.75;96633.77;618878;229;42727;-64
2023/04/07 02:57:32;;;;;;;;;;;;;;;26.75;40.34;96635.67;618817;227;65138;-64
2023/04/07 03:00:01;;;;;;;;;;;;;;;26.73;37.70;96629.80;618798;227;63158;-64
2023/04/07 03:02:30;;;;;;;;;;;;;;;26.72;40.30;96631.70;618019;229;41700;-63
2023/04/07 03:04:58;;;;;;;;;;;;;;;26.72;40.83;96623.63;617320;229;63526;-63
2023/04/07 03:07:26;;;;;;;;;;;;;;;26.70;38.54;96631.23;619011;228;66116;-64
2023/04/07 03:09:55;;;;;;;;;;;;;;;26.71;43.57;96626.63;619620;229;63929;-63
2023/04/07 03:12:22;;;;;;;;;;;;;;;26.69;40.93;96626.95;619765;229;62891;-63
2023/04/07 03:14:50;;;;;;;;;;;;;;;26.68;39.87;96628.08;619211;228;65538;-63
2023/04/07 03:17:17;;;;;;;;;;;;;;;26.68;42.16;96625.38;618793;227;66179;-63
2023/04/07 03:19:45;;;;;;;;;;;;;;;26.67;40.33;96631.08;618675;229;63000;-63
2023/04/07 03:22:13;;;;;;;;;;;;;;;26.66;41.33;96622.20;619968;228;64075;-63
2023/04/07 03:24:42;;;;;;;;;;;;;;;26.66;40.54;96629.50;619370;228;43322;-63
2023/04/07 03:27:10;;;;;;;;;;;;;;;26.63;40.07;96628.23;619441;227;63896;-64
2023/04/07 03:29:45;;;;;;;;;;;;;;;26.63;43.07;96628.23;619911;228;42598;-64
2023/04/07 03:32:14;;;;;;;;;;;;;;;26.63;40.91;96630.11;619434;228;63113;-64
2023/04/07 03:34:42;;;;;;;;;;;;;;;26.62;40.91;96634.71;619283;229;65038;-64
2023/04/07 03:37:10;;;;;;;;;;;;;;;26.62;41.23;96628.53;620023;228;65407;-64
2023/04/07 03:39:38;;;;;;;;;;;;;;;26.60;41.78;96628.88;619507;228;63395;-64
2023/04/07 03:42:08;;;;;;;;;;;;;;;26.59;41.09;96624.57;619096;228;42302;-64
2023/04/07 03:44:35;;;;;;;;;;;;;;;26.58;40.19;96631.08;618847;229;63681;-64
2023/04/07 03:47:03;;;;;;;;;;;;;;;26.58;40.86;96633.78;618873;229;65129;-64
2023/04/07 03:49:32;;;;;;;;;;;;;;;26.56;41.19;96642.16;618045;228;65904;-64
2023/04/07 03:52:01;;;;;;;;;;;;;;;26.55;41.34;96645.19;619585;228;63697;-64
2023/04/07 03:54:29;;;;;;;;;;;;;;;26.55;41.19;96639.80;619497;228;65650;-64
2023/04/07 03:56:58;;;;;;;;;;;;;;;26.54;42.19;96640.89;618823;229;64874;-64
2023/04/07 03:59:26;;;;;;;;;;;;;;;26.53;41.60;96636.62;618721;229;65591;-64
2023/04/07 04:02:01;;;;;;;;;;;;;;;26.51;40.16;96638.83;620073;228;43609;-64
2023/04/07 04:04:29;;;;;;;;;;;;;;;26.51;40.36;96644.22;619445;227;62607;-64
2023/04/07 04:06:57;;;;;;;;;;;;;;;26.51;41.98;96638.83;619134;228;65827;-64
2023/04/07 04:09:41;;;;;;;;;;;;;;;26.49;41.14;96647.22;618989;226;43281;-65
2023/04/07 04:12:10;;;;;;;;;;;;;;;26.49;41.57;96649.09;619881;227;63013;-64
2023/04/07 04:14:39;;;;;;;;;;;;;;;26.46;38.70;96650.52;619106;226;42066;-64
2023/04/07 04:17:07;;;;;;;;;;;;;;;26.47;41.37;96645.95;618938;227;62958;-64
2023/04/07 04:19:36;;;;;;;;;;;;;;;26.47;41.38;96651.34;619751;227;43546;-64
2023/04/07 04:22:06;;;;;;;;;;;;;;;26.46;40.55;96652.42;619458;228;43001;-64
2023/04/07 04:24:41;;;;;;;;;;;;;;;26.46;41.65;96649.73;619732;229;44105;-64
2023/04/07 04:27:08;;;;;;;;;;;;;;;26.46;42.09;96657.81;619166;228;65508;-64
2023/04/07 04:29:36;;;;;;;;;;;;;;;26.46;41.57;96657.81;618624;227;65934;-64
2023/04/07 04:32:08;;;;;;;;;;;;;;;26.45;39.54;96656.23;618343;226;62694;-64
2023/04/07 04:34:35;;;;;;;;;;;;;;;26.47;41.62;96656.72;619492;228;63760;-64
2023/04/07 04:37:04;;;;;;;;;;;;;;;26.46;41.14;96657.81;618992;228;66015;-64
2023/04/07 04:39:31;;;;;;;;;;;;;;;26.46;39.86;96663.98;618861;229;65952;-64
2023/04/07 04:42:00;;;;;;;;;;;;;;;26.46;40.58;96663.20;618265;229;63702;-64
2023/04/07 04:44:29;;;;;;;;;;;;;;;26.47;39.40;96662.11;620054;228;44235;-64
2023/04/07 04:46:57;;;;;;;;;;;;;;;26.48;40.49;96672.56;619866;228;62614;-64
2023/04/07 04:49:24;;;;;;;;;;;;;;;26.49;40.54;96668.78;619801;229;65003;-64
2023/04/07 04:51:52;;;;;;;;;;;;;;;26.48;40.29;96669.86;619811;227;66384;-64
2023/04/07 04:54:20;;;;;;;;;;;;;;;26.49;39.54;96667.95;620026;227;63685;-64
2023/04/07 04:56:48;;;;;;;;;;;;;;;26.50;40.31;96678.44;622438;227;62464;-64
2023/04/07 04:59:16;;;;;;;;;;;;;;;26.52;40.29;96676.25;620383;227;63985;-64
2023/04/07 05:01:45;;;;;;;;;;;;;;;26.52;41.49;96678.16;620111;228;46871;-64
2023/04/07 05:04:15;;;;;;;;;;;;;;;26.53;42.14;96680.52;619228;228;62561;-64
2023/04/07 05:06:45;;;;;;;;;;;;;;;26.54;41.14;96682.10;618813;229;43990;-64
2023/04/07 05:09:13;;;;;;;;;;;;;;;26.56;38.39;96684.50;618884;229;65721;-64
2023/04/07 05:11:45;;;;;;;;;;;;;;;26.56;40.17;96679.11;618635;229;62518;-64
2023/04/07 05:14:13;;;;;;;;;;;;;;;26.58;40.55;96692.28;618180;228;65524;-64
2023/04/07 05:16:43;;;;;;;;;;;;;;;26.58;37.48;96687.67;619453;228;43721;-64
2023/04/07 05:19:13;;;;;;;;;;;;;;;26.61;39.56;96687.04;618115;228;43956;-64
2023/04/07 05:21:40;;;;;;;;;;;;;;;26.63;37.87;96694.80;618843;229;65464;-64
2023/04/07 05:24:08;;;;;;;;;;;;;;;26.63;39.42;96690.22;618937;229;65251;-64
2023/04/07 05:26:36;;;;;;;;;;;;;;;26.65;36.82;96698.77;619157;229;65629;-64
2023/04/07 05:29:04;;;;;;;;;;;;;;;26.66;38.37;96694.98;619595;228;65880;-64
2023/04/07 05:31:34;;;;;;;;;;;;;;;26.68;38.44;96700.03;619473;228;62658;-64
2023/04/07 05:34:02;;;;;;;;;;;;;;;26.69;37.14;96705.12;619332;228;67053;-64
2023/04/07 05:36:31;;;;;;;;;;;;;;;26.72;36.10;96701.00;619114;229;42745;-64
2023/04/07 05:39:00;;;;;;;;;;;;;;;26.74;36.62;96702.28;618137;229;65846;-64
2023/04/07 05:41:28;;;;;;;;;;;;;;;26.76;38.39;96699.25;619526;228;63033;-64
2023/04/07 05:43:55;;;;;;;;;;;;;;;26.77;37.50;96698.95;619773;228;66179;-64
2023/04/07 05:46:23;;;;;;;;;;;;;;;26.80;37.54;96697.52;619496;228;65676;-64
2023/04/07 05:48:52;;;;;;;;;;;;;;;26.81;35.53;96687.53;619456;228;42188;-64
2023/04/07 05:51:20;;;;;;;;;;;;;;;26.83;37.31;96686.11;619055;228;66136;-64
2023/04/07 05:53:48;;;;;;;;;;;;;;;26.85;36.36;96689.28;618717;228;65925;-64
2023/04/07 05:56:16;;;;;;;;;;;;;;;26.87;36.17;96683.55;620153;228;65619;-65
2023/04/07 05:58:46;;;;;;;;;;;;;;;26.89;40.64;96686.73;619813;228;42338;-62
2023/04/07 06:01:14;;;;;;;;;;;;;;;26.90;35.09;96680.22;619132;228;65711;-64
2023/04/07 06:03:42;;;;;;;;;;;;;;;26.87;40.00;96687.04;619620;228;62926;-64
2023/04/07 06:06:11;;;;;;;;;;;;;;;26.86;39.87;96684.67;618392;228;46828;-64
2023/04/07 06:08:39;;;;;;;;;;;;;;;26.83;38.46;96677.23;618790;229;65647;-63
2023/04/07 06:11:06;;;;;;;;;;;;;;;26.81;33.34;96679.44;619915;229;65057;-64
2023/04/07 06:13:34;;;;;;;;;;;;;;;26.82;38.01;96686.41;619105;228;65550;-63
2023/04/07 06:16:02;;;;;;;;;;;;;;;26.81;34.86;96677.53;618404;228;63434;-63
2023/04/07 06:18:30;;;;;;;;;;;;;;;26.83;38.53;96683.41;619437;228;65764;-63
2023/04/07 06:20:58;;;;;;;;;;;;;;;26.83;35.75;96674.53;619049;229;66240;-63
2023/04/07 06:23:26;;;;;;;;;;;;;;;26.85;34.82;96680.41;618924;229;66055;-63
2023/04/07 06:25:53;;;;;;;;;;;;;;;26.86;35.59;96681.98;618910;228;65040;-64
2023/04/07 06:28:22;;;;;;;;;;;;;;;26.85;37.40;96681.19;619450;228;62758;-62
2023/04/07 06:30:49;;;;;;;;;;;;;;;26.83;37.01;96683.41;619928;229;65210;-62
2023/04/07 06:33:18;;;;;;;;;;;;;;;26.83;34.95;96679.92;618124;228;66084;-62
2023/04/07 06:35:46;;;;;;;;;;;;;;;26.82;36.97;96687.22;617323;228;62994;-63
2023/04/07 06:38:13;;;;;;;;;;;;;;;26.81;37.77;96680.23;612247;230;63140;-62
2023/04/07 06:40:41;;;;;;;;;;;;;;;26.82;39.11;96679.14;611562;230;63914;-62
2023/04/07 06:43:08;;;;;;;;;;;;;;;26.82;36.08;96681.83;615144;230;65598;-62
2023/04/07 06:45:45;;;;;;;;;;;;;;;26.82;37.94;96683.71;610430;230;45353;-62
2023/04/07 06:48:12;;;;;;;;;;;;;;;26.82;37.13;96681.02;614360;230;62908;-63
2023/04/07 06:50:40;;;;;;;;;;;;;;;26.83;38.29;96682.62;611559;230;65435;-63
2023/04/07 06:53:07;;;;;;;;;;;;;;;26.82;36.13;96679.14;615115;230;63095;-63
2023/04/07 06:55:35;;;;;;;;;;;;;;;26.82;38.06;96676.44;607699;230;63905;-64
2023/04/07 06:58:02;;;;;;;;;;;;;;;26.85;38.74;96683.11;614739;230;65368;-62
2023/04/07 07:00:30;;;;;;;;;;;;;;;26.83;38.91;96677.23;611391;230;62830;-63
2023/04/07 07:02:57;;;;;;;;;;;;;;;26.85;36.16;96680.41;614625;230;63096;-65
2023/04/07 07:05:26;;;;;;;;;;;;;;;26.87;39.92;96686.25;614068;230;63089;-62
2023/04/07 07:07:53;;;;;;;;;;;;;;;26.88;39.56;96682.47;616334;229;65188;-63
2023/04/07 07:10:21;;;;;;;;;;;;;;;26.87;38.10;96683.55;617083;228;65037;-63
2023/04/07 07:12:49;;;;;;;;;;;;;;;26.87;39.55;96683.55;624459;224;64161;-62
2023/04/07 07:15:17;;;;;;;;;;;;;;;26.89;38.13;96687.52;629924;225;63230;-61
2023/04/07 07:17:45;;;;;;;;;;;;;;;26.89;36.55;96690.22;617497;224;69658;-62
2023/04/07 07:20:12;;;;;;;;;;;;;;;26.90;38.96;96685.62;614915;228;63366;-63
2023/04/07 07:22:40;;;;;;;;;;;;;;;26.91;37.93;96684.52;619553;225;63106;-62
2023/04/07 07:25:07;;;;;;;;;;;;;;;26.92;39.63;96691.48;616668;225;65030;-63
2023/04/07 07:27:35;;;;;;;;;;;;;;;26.92;34.38;96688.80;614830;224;65519;-63
2023/04/07 07:30:02;;;;;;;;;;;;;;;26.94;37.71;96694.67;613155;229;65552;-62
2023/04/07 07:32:30;;;;;;;;;;;;;;;26.94;38.56;96700.06;622685;225;65063;-63
2023/04/07 07:35:01;;;;;;;;;;;;;;;26.96;39.71;96701.34;626961;226;43929;-63
2023/04/07 07:37:28;;;;;;;;;;;;;;;26.96;38.68;96697.85;626937;225;63943;-64
2023/04/07 07:39:56;;;;;;;;;;;;;;;26.96;35.92;96692.45;628503;225;64994;-63
2023/04/07 07:42:25;;;;;;;;;;;;;;;26.99;35.81;96702.61;627606;225;65395;-64
2023/04/07 07:44:52;;;;;;;;;;;;;;;27.00;39.35;96693.39;623302;226;65154;-63
2023/04/07 07:47:20;;;;;;;;;;;;;;;26.98;37.32;96698.30;619717;228;65050;-63
2023/04/07 07:49:47;;;;;;;;;;;;;;;26.96;40.34;96695.94;619494;228;64869;-63
2023/04/07 07:52:15;;;;;;;;;;;;;;;26.96;38.43;96693.24;618978;229;64956;-65
2023/04/07 07:54:44;;;;;;;;;;;;;;;26.96;38.01;96687.06;619395;229;65031;-63
2023/04/07 07:57:11;;;;;;;;;;;;;;;26.93;35.97;96693.09;619824;229;65391;-62
2023/04/07 07:59:43;;;;;;;;;;;;;;;26.92;37.12;96694.19;620066;229;62918;-62
2023/04/07 08:02:08;;;;;;;;;;;;;;;26.91;37.29;96700.70;620248;228;63023;-62
2023/04/07 08:04:36;;;;;;;;;;;;;;;26.89;36.00;96700.22;607132;233;64832;-63
2023/04/07 08:07:04;;;;;;;;;;;;;;;26.88;36.98;96695.95;616268;228;65007;-63
2023/04/07 08:09:31;;;;;;;;;;;;;;;26.88;38.18;96704.03;621425;228;65044;-64
2023/04/07 08:12:00;;;;;;;;;;;;;;;26.89;37.90;96705.61;621054;228;63364;-64
2023/04/07 08:14:27;;;;;;;;;;;;;;;26.88;36.38;96704.03;619610;229;63093;-64
2023/04/07 08:16:55;;;;;;;;;;;;;;;26.88;38.93;96699.43;615015;229;64876;-65
2023/04/07 08:19:23;;;;;;;;;;;;;;;26.87;37.14;96700.52;618417;228;65466;-63
2023/04/07 08:21:51;;;;;;;;;;;;;;;26.88;35.22;96699.43;620134;228;65211;-62
2023/04/07 08:24:20;;;;;;;;;;;;;;;26.87;35.53;96697.83;619766;229;42476;-62
2023/04/07 08:26:48;;;;;;;;;;;;;;;26.88;36.33;96695.95;619484;229;63361;-62
2023/04/07 08:29:15;;;;;;;;;;;;;;;26.90;38.74;96693.70;619537;229;63029;-62
2023/04/07 08:31:43;;;;;;;;;;;;;;;26.91;37.26;96689.92;620409;228;62821;-63
2023/04/07 08:34:10;;;;;;;;;;;;;;;26.92;37.26;96691.48;619844;228;63946;-62
2023/04/07 08:36:38;;;;;;;;;;;;;;;26.93;37.30;96698.48;620326;228;65005;-62
2023/04/07 08:39:05;;;;;;;;;;;;;;;26.94;34.67;96700.06;620009;228;65047;-63
2023/04/07 08:41:34;;;;;;;;;;;;;;;26.95;38.93;96688.16;619535;229;65427;-63
2023/04/07 08:44:03;;;;;;;;;;;;;;;26.94;36.77;96679.28;619452;229;63521;-63
2023/04/07 08:46:31;;;;;;;;;;;;;;;26.95;38.44;96686.25;619561;229;63109;-62
2023/04/07 08:48:59;;;;;;;;;;;;;;;26.95;37.92;96685.45;619516;229;65311;-63
2023/04/07 08:51:30;;;;;;;;;;;;;;;26.96;35.88;96687.85;620034;229;45109;-63
2023/04/07 08:53:59;;;;;;;;;;;;;;;26.97;36.96;96688.64;619876;228;65036;-63
2023/04/07 08:56:27;;;;;;;;;;;;;;;26.97;38.05;96694.82;620145;228;65504;-62
2023/04/07 08:58:55;;;;;;;;;;;;;;;26.98;37.29;96699.13;618424;228;65030;-62
2023/04/07 09:01:23;;;;;;;;;;;;;;;26.99;37.08;96692.61;619526;227;65155;-62
2023/04/07 09:03:51;;;;;;;;;;;;;;;27.00;38.91;96688.00;618895;228;62922;-62
2023/04/07 09:06:18;;;;;;;;;;;;;;;27.00;38.01;96691.48;619311;228;62903;-63
2023/04/07 09:08:46;;;;;;;;;;;;;;;27.01;37.23;96695.00;620623;228;62962;-61
2023/04/07 09:11:13;;;;;;;;;;;;;;;27.01;36.35;96695.00;619778;228;65620;-62
2023/04/07 09:13:41;;;;;;;;;;;;;;;27.03;36.87;96702.75;619510;229;65220;-62
2023/04/07 09:16:08;;;;;;;;;;;;;;;27.03;36.37;96692.75;617151;229;64916;-61
2023/04/07 09:18:36;;;;;;;;;;;;;;;27.04;37.86;96694.36;621284;224;65370;-62
2023/04/07 09:21:06;;;;;;;;;;;;;;;27.03;38.24;96700.06;621796;227;65123;-62
2023/04/07 09:23:36;;;;;;;;;;;;;;;27.02;39.48;96696.58;624997;224;65136;-61
2023/04/07 09:26:23;;;;;;;;;;;;;;;27.03;37.58;96703.54;619730;224;65371;-61
2023/04/07 09:28:55;;;;;;;;;;;;;;;27.03;37.34;96698.14;613273;229;63213;-61
2023/04/07 09:31:25;;;;;;;;;;;;;;;27.04;34.27;96702.45;613757;231;65148;-62
2023/04/07 09:33:52;;;;;;;;;;;;;;;27.04;39.52;96694.36;613669;231;65439;-61
2023/04/07 09:36:21;;;;;;;;;;;;;;;27.04;38.85;96694.36;611966;231;65181;-60
2023/04/07 09:38:49;;;;;;;;;;;;;;;27.05;36.20;96693.23;613395;231;63819;-62
2023/04/07 09:41:17;;;;;;;;;;;;;;;27.05;33.07;96695.94;612475;231;65415;-61
2023/04/07 09:43:45;;;;;;;;;;;;;;;27.07;37.55;96699.11;613562;228;63257;-62
2023/04/07 09:46:17;;;;;;;;;;;;;;;27.09;37.29;96704.17;616884;228;65177;-61
2023/04/07 09:48:45;;;;;;;;;;;;;;;27.09;36.65;96701.48;614234;229;65379;-62
2023/04/07 09:51:16;;;;;;;;;;;;;;;27.09;38.26;96701.48;614038;230;46221;-61
2023/04/07 09:53:46;;;;;;;;;;;;;;;27.08;36.78;96700.69;614673;229;65031;-61
2023/04/07 09:56:15;;;;;;;;;;;;;;;27.09;37.19;96706.88;611951;230;63289;-62
2023/04/07 09:58:43;;;;;;;;;;;;;;;27.09;36.43;96707.69;611384;231;65749;-62
2023/04/07 10:01:11;;;;;;;;;;;;;;;27.09;38.70;96706.88;613322;230;63800;-62
2023/04/07 10:03:39;;;;;;;;;;;;;;;27.09;37.42;96709.56;611082;230;62897;-61
2023/04/07 10:06:07;;;;;;;;;;;;;;;27.09;36.95;96710.38;611793;230;63089;-62
2023/04/07 10:08:35;;;;;;;;;;;;;;;27.10;35.19;96708.48;611604;230;64809;-61
2023/04/07 10:11:03;;;;;;;;;;;;;;;27.10;38.07;96714.66;612473;229;65349;-61
2023/04/07 10:13:32;;;;;;;;;;;;;;;27.10;36.85;96711.17;611564;232;65123;-62
2023/04/07 10:16:00;;;;;;;;;;;;;;;27.10;37.62;96708.48;611811;230;62942;-62
2023/04/07 10:18:31;;;;;;;;;;;;;;;27.11;38.07;96721.63;613261;229;62908;-62
2023/04/07 10:21:03;;;;;;;;;;;;;;;27.11;36.26;96715.44;616240;229;65261;-61
2023/04/07 10:23:41;;;;;;;;;;;;;;;27.12;38.49;96719.72;614295;229;65108;-62
2023/04/07 10:26:09;;;;;;;;;;;;;;;27.13;31.58;96719.41;615041;228;65721;-66
2023/04/07 10:28:38;;;;;;;;;;;;;;;27.18;37.13;96719.28;615663;229;65188;-66
2023/04/07 10:31:06;;;;;;;;;;;;;;;27.19;32.88;96723.56;614389;230;61881;-65
2023/04/07 10:33:50;;;;;;;;;;;;;;;27.21;33.10;96724.04;611649;230;65700;-66
2023/04/07 10:36:19;;;;;;;;;;;;;;;27.22;31.97;96720.22;613166;230;63137;-65
2023/04/07 10:39:05;;;;;;;;;;;;;;;27.26;32.10;96716.91;612539;230;64909;-66
2023/04/07 10:41:37;;;;;;;;;;;;;;;27.28;32.82;96720.06;610590;230;66608;-66
2023/04/07 10:44:05;;;;;;;;;;;;;;;27.28;32.43;96714.66;611304;230;63181;-66
2023/04/07 10:46:51;;;;;;;;;;;;;;;27.30;34.69;96720.54;611513;230;65022;-66
2023/04/07 10:49:16;;;;;;;;;;;;;;;27.30;33.95;96717.84;611335;231;65477;-66
2023/04/07 10:51:43;;;;;;;;;;;;;;;27.31;32.92;96720.23;611441;230;66008;-66
2023/04/07 10:54:19;;;;;;;;;;;;;;;27.33;32.83;96722.59;607974;230;65057;-67
2023/04/07 10:57:06;;;;;;;;;;;;;;;27.34;37.97;96732.30;613685;229;65483;-66
2023/04/07 10:59:33;;;;;;;;;;;;;;;27.34;35.09;96726.90;611606;230;63294;-65
2023/04/07 11:02:16;;;;;;;;;;;;;;;27.34;32.35;96730.38;617314;228;65114;-65
2023/04/07 11:04:45;;;;;;;;;;;;;;;27.36;33.10;96730.84;613786;230;64093;-64
2023/04/07 11:07:13;;;;;;;;;;;;;;;27.36;34.27;96727.35;615763;230;63038;-65
2023/04/07 11:09:41;;;;;;;;;;;;;;;27.36;37.61;96732.75;612634;229;62969;-64
2023/04/07 11:12:11;;;;;;;;;;;;;;;27.31;34.12;96733.73;611519;230;66390;-65
2023/04/07 11:14:40;;;;;;;;;;;;;;;27.34;33.44;96740.39;611212;230;65528;-66
2023/04/07 11:17:10;;;;;;;;;;;;;;;27.32;38.35;96734.52;614394;230;64999;-65
2023/04/07 11:19:39;;;;;;;;;;;;;;;27.30;38.26;96740.21;615927;229;63244;-65
2023/04/07 11:22:18;;;;;;;;;;;;;;;27.30;37.76;96734.81;612426;229;62910;-66
2023/04/07 11:24:46;;;;;;;;;;;;;;;27.30;36.38;96734.03;614741;230;65113;-65
2023/04/07 11:27:14;;;;;;;;;;;;;;;27.30;37.75;96736.73;612903;229;65482;-66
2023/04/07 11:29:42;;;;;;;;;;;;;;;27.29;38.33;96735.94;611742;230;62983;-62
2023/04/07 11:32:11;;;;;;;;;;;;;;;27.30;37.46;96739.42;611787;230;65909;-62
2023/04/07 11:34:39;;;;;;;;;;;;;;;27.29;39.03;96740.55;611644;230;64987;-62
2023/04/07 11:37:23;;;;;;;;;;;;;;;27.28;37.85;96738.94;614329;230;63222;-61
2023/04/07 11:39:53;;;;;;;;;;;;;;;27.28;35.96;96745.13;612192;230;65130;-62
2023/04/07 11:42:35;;;;;;;;;;;;;;;27.28;35.16;96747.83;612986;230;65721;-61
2023/04/07 11:45:02;;;;;;;;;;;;;;;27.27;35.95;96746.25;618192;229;65280;-62
2023/04/07 11:47:35;;;;;;;;;;;;;;;27.31;31.87;96746.40;613721;229;64757;-62
2023/04/07 11:50:03;;;;;;;;;;;;;;;27.30;32.50;96750.22;611540;230;63381;-61
2023/04/07 11:52:32;;;;;;;;;;;;;;;27.29;35.19;96754.83;613279;230;65247;-61
2023/04/07 11:55:01;;;;;;;;;;;;;;;27.29;34.31;96748.64;615357;230;63106;-63
2023/04/07 11:57:29;;;;;;;;;;;;;;;27.28;37.33;96755.92;619718;228;65155;-63
2023/04/07 12:00:06;;;;;;;;;;;;;;;27.28;36.94;96760.53;613577;230;64962;-62
2023/04/07 12:02:33;;;;;;;;;;;;;;;27.28;37.18;96757.83;614142;230;63503;-62
2023/04/07 12:05:01;;;;;;;;;;;;;;;27.29;37.55;96759.44;612937;230;65247;-62
2023/04/07 12:07:28;;;;;;;;;;;;;;;27.28;37.93;96766.71;616987;229;62966;-62
2023/04/07 12:09:56;;;;;;;;;;;;;;;27.28;38.03;96763.23;612032;230;65095;-61
2023/04/07 12:12:27;;;;;;;;;;;;;;;27.28;37.76;96761.31;611660;230;65109;-62
2023/04/07 12:14:55;;;;;;;;;;;;;;;27.29;35.24;96770.23;613958;230;64975;-62
2023/04/07 12:17:26;;;;;;;;;;;;;;;27.28;36.33;96772.11;613234;230;65090;-62
2023/04/07 12:19:54;;;;;;;;;;;;;;;27.29;37.60;96767.53;611350;230;65031;-61
2023/04/07 12:22:21;;;;;;;;;;;;;;;27.29;38.52;96770.23;611690;230;64937;-61
2023/04/07 12:24:48;;;;;;;;;;;;;;;27.28;37.18;96768.63;614010;229;62964;-61
2023/04/07 12:27:16;;;;;;;;;;;;;;;27.29;37.63;96778.32;612776;230;64118;-62
2023/04/07 12:29:43;;;;;;;;;;;;;;;27.29;38.37;96775.63;612920;229;65517;-62
2023/04/07 12:32:11;;;;;;;;;;;;;;;27.29;38.60;96772.92;618448;228;67449;-61
2023/04/07 12:34:38;;;;;;;;;;;;;;;27.30;36.28;96777.20;612839;230;65402;-62
2023/04/07 12:37:06;;;;;;;;;;;;;;;27.30;37.69;96777.98;610810;231;65144;-63
2023/04/07 12:39:33;;;;;;;;;;;;;;;27.30;36.71;96769.89;608853;229;63685;-63
2023/04/07 12:42:01;;;;;;;;;;;;;;;27.30;36.58;96772.59;613393;230;65328;-62
2023/04/07 12:44:28;;;;;;;;;;;;;;;27.31;37.54;96771.50;609695;230;65378;-63
2023/04/07 12:46:56;;;;;;;;;;;;;;;27.30;39.30;96772.59;610712;231;62760;-63
2023/04/07 12:49:23;;;;;;;;;;;;;;;27.32;36.84;96775.77;608851;232;63114;-62
2023/04/07 12:51:51;;;;;;;;;;;;;;;27.31;35.59;96773.38;603691;230;67552;-62
2023/04/07 12:54:19;;;;;;;;;;;;;;;27.32;38.34;96781.17;607452;231;63061;-61
2023/04/07 12:56:46;;;;;;;;;;;;;;;27.30;37.30;96791.48;608161;232;63495;-61